Time;durP1;ratioP1;P1;durP2;ratioP2;P2;SDS_P1;SDS_P2;PMS_P1;PMS_P2;Temp;Humidity;BMP_temperature;BMP_pressure;BME280_temperature;BME280_humidity;BME280_pressure;Samples;Min_cycle;Max_cycle;Signal;HPM_P1;HPM_P2
2022/01/02 00:01:12;;;;;;;9.05;3.28;;;;;;;11.37;97.72;101633.59;10542140;28;20055;-60
2022/01/02 00:06:16;;;;;;;5.72;3.53;;;;;;;11.26;98.76;101636.75;10542124;28;20400;-59
2022/01/02 00:11:24;;;;;;;9.20;4.10;;;;;;;11.33;98.11;101642.50;10540454;28;20048;-60
2022/01/02 00:16:27;;;;;;;10.10;3.33;;;;;;;11.44;96.32;101642.03;10540773;28;20044;-60
2022/01/02 00:21:38;;;;;;;8.75;4.68;;;;;;;11.45;96.00;101647.19;10540409;28;20044;-60
2022/01/02 00:26:45;;;;;;;5.05;3.20;;;;;;;11.42;96.50;101697.16;10541635;28;20047;-60
2022/01/02 00:31:48;;;;;;;7.32;3.75;;;;;;;11.38;95.80;101693.00;10539991;28;20051;-59
2022/01/02 00:36:50;;;;;;;6.22;3.40;;;;;;;11.29;98.25;101701.25;10541163;28;20044;-60
2022/01/02 00:41:58;;;;;;;4.55;3.33;;;;;;;11.34;96.55;101702.75;10540643;28;20048;-59
2022/01/02 00:47:07;;;;;;;4.45;3.33;;;;;;;11.46;96.12;101698.69;10539886;28;20040;-60
2022/01/02 00:52:28;;;;;;;6.47;3.53;;;;;;;11.53;95.87;101694.03;10540462;28;20047;-59
2022/01/02 00:57:34;;;;;;;6.07;3.45;;;;;;;11.45;97.11;101673.41;10540947;28;20055;-59
2022/01/02 01:02:49;;;;;;;11.27;4.63;;;;;;;11.24;100.00;101670.00;10540178;28;20055;-60
2022/01/02 01:07:57;;;;;;;6.13;4.07;;;;;;;11.24;100.00;101662.16;10539915;28;20052;-60
2022/01/02 01:13:03;;;;;;;9.88;4.00;;;;;;;11.37;100.00;101677.31;10539841;28;20055;-60
2022/01/02 01:18:06;;;;;;;8.13;3.90;;;;;;;11.11;100.00;101682.84;10539480;28;20052;-60
2022/01/02 01:23:12;;;;;;;9.15;4.60;;;;;;;11.04;100.00;101681.41;10539619;28;20066;-60
2022/01/02 01:28:15;;;;;;;6.20;3.83;;;;;;;11.12;100.00;101675.81;10539585;28;20511;-60
2022/01/02 01:33:18;;;;;;;9.90;5.20;;;;;;;11.01;100.00;101664.97;10539315;28;20044;-60
2022/01/02 01:38:20;;;;;;;9.90;4.63;;;;;;;11.00;100.00;101658.06;10539508;28;20484;-60
2022/01/02 01:43:36;;;;;;;12.68;5.05;;;;;;;10.69;100.00;101655.03;10546949;28;20088;-60
2022/01/02 01:48:39;;;;;;;7.03;4.13;;;;;;;10.99;100.00;101630.13;10546592;28;20048;-60
2022/01/02 01:53:41;;;;;;;7.95;4.63;;;;;;;10.87;100.00;101624.53;10547731;28;20040;-60
2022/01/02 01:58:44;;;;;;;12.40;5.85;;;;;;;10.88;100.00;101625.41;10547535;28;20055;-60
2022/01/02 02:03:47;;;;;;;11.75;5.43;;;;;;;10.77;100.00;101621.47;10545748;28;20491;-60
2022/01/02 02:08:52;;;;;;;10.70;5.57;;;;;;;10.81;100.00;101609.09;10545913;28;20048;-60
2022/01/02 02:13:55;;;;;;;15.77;6.10;;;;;;;10.83;100.00;101599.41;10545631;28;20052;-60
2022/01/02 02:18:57;;;;;;;11.88;5.75;;;;;;;10.71;100.00;101586.88;10545207;28;20056;-60
2022/01/02 02:24:00;;;;;;;15.98;5.47;;;;;;;10.96;100.00;101566.47;10546223;28;20476;-61
2022/01/02 02:29:04;;;;;;;10.50;5.05;;;;;;;11.00;100.00;101579.44;10545893;28;20511;-60
2022/01/02 02:34:06;;;;;;;9.60;5.40;;;;;;;10.88;100.00;101573.00;10545920;28;20044;-60
2022/01/02 02:39:09;;;;;;;13.85;5.55;;;;;;;11.06;100.00;101556.41;10545981;28;20095;-59
2022/01/02 02:48:33;;;;;;;11.30;5.10;;;;;;;10.94;100.00;101546.50;10545164;28;20411;-61
2022/01/02 02:49:40;;;;;;;9.45;4.57;;;;;;;11.20;100.00;101532.16;10544557;28;20044;-60
2022/01/02 02:54:43;;;;;;;10.45;4.30;;;;;;;11.26;100.00;101526.63;10544135;28;20047;-61
2022/01/02 02:59:45;;;;;;;9.38;4.45;;;;;;;11.26;100.00;101520.53;10544911;28;20048;-60
2022/01/02 03:04:48;;;;;;;14.98;4.70;;;;;;;11.13;100.00;101508.03;10544598;28;20484;-60
2022/01/02 03:09:52;;;;;;;10.52;4.13;;;;;;;11.14;100.00;101491.34;10544381;28;20476;-60
2022/01/02 03:14:54;;;;;;;14.68;5.20;;;;;;;11.20;100.00;101487.59;10544454;28;20044;-60
2022/01/02 03:19:56;;;;;;;9.70;4.63;;;;;;;11.18;100.00;101486.84;10543976;28;20385;-60
2022/01/02 03:24:59;;;;;;;15.68;4.25;;;;;;;11.27;100.00;101481.13;10543597;28;20515;-60
2022/01/02 03:30:02;;;;;;;8.15;3.90;;;;;;;11.36;100.00;101486.84;10543514;28;20055;-60
2022/01/02 03:35:05;;;;;;;11.50;4.40;;;;;;;11.34;100.00;101489.53;10543324;28;20044;-60
2022/01/02 03:40:09;;;;;;;10.23;3.85;;;;;;;11.36;100.00;101477.19;10543292;28;20059;-61
2022/01/02 03:45:11;;;;;;;8.32;4.07;;;;;;;11.34;100.00;101479.91;10543055;28;20044;-60
2022/01/02 03:50:15;;;;;;;8.82;3.88;;;;;;;11.35;100.00;101465.03;10543190;28;20123;-59
2022/01/02 03:55:17;;;;;;;8.93;4.45;;;;;;;11.41;100.00;101467.34;10542690;28;20040;-59
2022/01/02 04:00:19;;;;;;;15.63;3.92;;;;;;;11.47;100.00;101458.31;10541126;28;20067;-60
2022/01/02 04:05:22;;;;;;;9.13;4.53;;;;;;;11.61;100.00;101461.06;10541713;28;20075;-60
2022/01/02 04:10:24;;;;;;;10.73;5.15;;;;;;;11.41;100.00;101454.22;10541990;28;20068;-60
2022/01/02 04:15:26;;;;;;;12.55;4.78;;;;;;;11.50;100.00;101451.16;10541523;28;20059;-60
2022/01/02 04:20:29;;;;;;;10.40;3.88;;;;;;;11.33;100.00;101438.03;10541621;28;20056;-61
2022/01/02 04:25:31;;;;;;;9.32;3.45;;;;;;;11.29;100.00;101439.13;10542425;28;20044;-60
2022/01/02 04:30:34;;;;;;;14.98;4.53;;;;;;;11.13;100.00;101460.00;10540513;28;20044;-60
2022/01/02 04:35:36;;;;;;;12.68;5.25;;;;;;;11.26;100.00;101441.88;10540031;28;20043;-60
2022/01/02 04:40:38;;;;;;;12.77;4.18;;;;;;;11.25;100.00;101427.94;10541034;28;20064;-60
2022/01/02 04:45:41;;;;;;;10.27;3.95;;;;;;;11.22;100.00;101424.63;10540957;28;20055;-61
2022/01/02 04:50:43;;;;;;;12.82;4.60;;;;;;;11.03;100.00;101422.94;10540541;28;20484;-60
2022/01/02 04:55:45;;;;;;;8.82;4.15;;;;;;;11.19;100.00;101416.91;10540218;28;20055;-61
2022/01/02 05:00:48;;;;;;;13.30;4.80;;;;;;;11.02;100.00;101420.38;10540723;28;20044;-60
2022/01/02 05:05:51;;;;;;;18.75;4.85;;;;;;;11.16;100.00;101412.66;10540252;28;20127;-60
2022/01/02 05:10:53;;;;;;;14.10;5.20;;;;;;;10.95;100.00;101401.50;10540065;28;20079;-60
2022/01/02 05:15:55;;;;;;;13.73;4.40;;;;;;;10.95;100.00;101377.91;10540143;28;20058;-61
2022/01/02 05:20:58;;;;;;;11.93;4.82;;;;;;;10.89;100.00;101383.44;10539883;28;20775;-59
2022/01/02 05:26:00;;;;;;;11.30;4.97;;;;;;;10.75;100.00;101371.03;10540188;28;20040;-60
2022/01/02 05:31:03;;;;;;;9.55;4.75;;;;;;;10.74;100.00;101351.84;10539571;28;20040;-60
2022/01/02 05:36:05;;;;;;;16.13;4.60;;;;;;;10.76;100.00;101362.25;10539602;28;20051;-60
2022/01/02 05:41:08;;;;;;;7.45;4.07;;;;;;;10.92;100.00;101339.59;10539175;28;20510;-60
2022/01/02 05:46:10;;;;;;;16.17;5.47;;;;;;;10.64;100.00;101332.28;10538240;28;20392;-61
2022/01/02 05:51:12;;;;;;;14.13;5.13;;;;;;;10.66;100.00;101313.84;10539449;28;20048;-60
2022/01/02 05:56:15;;;;;;;9.45;4.35;;;;;;;10.79;100.00;101314.94;10539047;28;20044;-61
2022/01/02 06:01:17;;;;;;;9.60;3.97;;;;;;;10.94;100.00;101315.94;10538810;28;20427;-60
2022/01/02 06:06:20;;;;;;;9.48;4.47;;;;;;;10.75;100.00;101313.41;10539357;28;20048;-60
2022/01/02 06:11:22;;;;;;;11.13;4.43;;;;;;;10.71;100.00;101302.25;10539275;28;20059;-60
2022/01/02 06:16:24;;;;;;;5.93;4.70;;;;;;;10.62;100.00;101280.91;10538517;28;20507;-61
2022/01/02 06:21:27;;;;;;;11.55;4.85;;;;;;;10.53;100.00;101254.25;10537359;28;20048;-60
2022/01/02 06:26:29;;;;;;;11.63;4.35;;;;;;;10.50;100.00;101241.31;10541450;28;20047;-60
2022/01/02 06:31:32;;;;;;;11.40;5.43;;;;;;;10.68;100.00;101215.97;10545878;28;20040;-60
2022/01/02 06:36:34;;;;;;;10.85;4.78;;;;;;;10.55;100.00;101196.56;10546197;28;20113;-60
2022/01/02 06:41:36;;;;;;;8.18;4.10;;;;;;;10.65;100.00;101194.34;10545733;28;20048;-60
2022/01/02 06:46:40;;;;;;;12.48;4.90;;;;;;;10.36;100.00;101166.09;10546101;28;20052;-60
2022/01/02 06:51:42;;;;;;;11.23;5.25;;;;;;;10.33;100.00;101139.25;10545450;28;20048;-60
2022/01/02 06:56:45;;;;;;;10.73;6.30;;;;;;;10.32;100.00;101140.16;10545217;28;20056;-60
2022/01/02 07:01:47;;;;;;;11.00;5.60;;;;;;;10.31;100.00;101123.56;10544625;28;20492;-61
2022/01/02 07:06:49;;;;;;;19.92;6.60;;;;;;;10.39;100.00;101118.00;10545145;28;20055;-60
2022/01/02 07:11:56;;;;;;;13.27;5.88;;;;;;;10.34;100.00;101093.81;10545067;28;20040;-60
2022/01/02 07:16:58;;;;;;;7.93;4.95;;;;;;;10.25;100.00;101095.09;10543220;28;20417;-60
2022/01/02 07:22:01;;;;;;;19.08;5.68;;;;;;;10.22;100.00;101100.47;10543874;28;20480;-59
2022/01/02 07:27:03;;;;;;;13.15;5.43;;;;;;;10.31;100.00;101100.03;10544362;28;20040;-61
2022/01/02 07:32:06;;;;;;;16.58;5.22;;;;;;;10.25;100.00;101082.00;10543444;28;20044;-60
2022/01/02 07:37:09;;;;;;;11.57;5.07;;;;;;;10.19;100.00;101071.88;10542261;28;20098;-59
2022/01/02 07:42:11;;;;;;;14.07;6.38;;;;;;;10.27;100.00;101085.41;10543098;28;20048;-59
2022/01/02 07:47:13;;;;;;;8.88;5.30;;;;;;;10.35;100.00;101082.41;10542936;28;20047;-60
2022/01/02 07:52:16;;;;;;;13.18;5.00;;;;;;;10.30;100.00;101061.69;10542637;28;20055;-60
2022/01/02 07:57:19;;;;;;;9.65;4.70;;;;;;;10.22;100.00;101027.22;10542727;28;20056;-61
2022/01/02 08:02:22;;;;;;;10.50;4.38;;;;;;;10.26;100.00;101026.13;10543002;28;20054;-60
2022/01/02 08:07:24;;;;;;;7.72;4.00;;;;;;;10.29;100.00;101057.38;10542548;28;20051;-60
2022/01/02 08:12:26;;;;;;;10.05;4.53;;;;;;;10.32;100.00;101079.97;10541006;28;20044;-60
2022/01/02 08:17:29;;;;;;;7.35;4.60;;;;;;;10.31;100.00;101105.25;10541902;28;20056;-60
2022/01/02 08:22:31;;;;;;;5.95;4.20;;;;;;;10.64;100.00;101094.00;10541516;28;20055;-60
2022/01/02 08:27:34;;;;;;;13.68;5.35;;;;;;;10.34;100.00;101089.44;10541100;28;20040;-60
2022/01/02 08:32:38;;;;;;;7.43;3.63;;;;;;;10.50;100.00;101075.53;10541034;28;20510;-59
2022/01/02 08:37:41;;;;;;;12.82;5.13;;;;;;;10.44;100.00;101091.56;10541662;28;20050;-61
2022/01/02 08:42:43;;;;;;;9.13;3.53;;;;;;;10.31;100.00;101081.69;10540816;28;20044;-60
2022/01/02 08:47:46;;;;;;;6.82;4.18;;;;;;;10.44;100.00;101091.56;10541400;28;20044;-60
2022/01/02 08:52:48;;;;;;;11.23;3.35;;;;;;;10.68;100.00;101078.97;10539869;28;20048;-60
2022/01/02 08:57:51;;;;;;;7.03;4.78;;;;;;;10.33;100.00;101045.03;10540460;28;20044;-61
2022/01/02 09:02:53;;;;;;;7.63;4.45;;;;;;;10.61;100.00;101086.31;10540442;28;20055;-59
2022/01/02 09:07:56;;;;;;;5.50;3.88;;;;;;;10.63;100.00;101086.22;10540440;28;20044;-59
2022/01/02 09:12:58;;;;;;;5.97;3.63;;;;;;;10.68;100.00;101071.09;10539424;28;20044;-59
2022/01/02 09:18:01;;;;;;;4.70;3.38;;;;;;;10.68;100.00;101071.94;10538866;28;20519;-59
2022/01/02 09:23:03;;;;;;;5.07;2.88;;;;;;;10.68;100.00;101069.31;10539983;28;20052;-59
2022/01/02 09:28:06;;;;;;;5.75;3.65;;;;;;;10.60;100.00;101069.72;10515364;28;20041;-61
2022/01/02 09:33:09;;;;;;;7.47;3.90;;;;;;;10.84;100.00;101065.88;10496146;28;20044;-61
2022/01/02 09:38:11;;;;;;;7.78;4.15;;;;;;;10.94;100.00;101069.69;10501224;28;20049;-60
2022/01/02 09:43:16;;;;;;;6.53;3.67;;;;;;;11.09;100.00;101070.63;10510780;28;20515;-60
2022/01/02 09:48:18;;;;;;;7.85;3.80;;;;;;;11.27;100.00;101074.00;10509568;28;20047;-61
2022/01/02 09:53:22;;;;;;;8.45;3.42;;;;;;;11.19;100.00;101063.94;10496365;28;20048;-61
2022/01/02 09:58:30;;;;;;;5.05;3.95;;;;;;;11.33;100.00;101064.03;10505140;28;20507;-62
2022/01/02 10:03:42;;;;;;;10.15;4.00;;;;;;;11.36;100.00;101062.16;10505855;28;20052;-60
2022/01/02 10:08:46;;;;;;;6.18;4.13;;;;;;;11.34;100.00;101052.59;10504618;28;20049;-60
2022/01/02 10:13:54;;;;;;;8.25;4.20;;;;;;;11.56;100.00;101054.00;10501156;28;20072;-59
2022/01/02 10:18:58;;;;;;;9.23;3.85;;;;;;;11.56;99.85;101066.28;10501109;28;20049;-59
2022/01/02 10:24:09;;;;;;;7.35;3.88;;;;;;;11.57;100.00;101087.16;10501785;28;20040;-59
2022/01/02 10:29:15;;;;;;;7.78;4.25;;;;;;;11.80;97.35;101079.75;10502116;28;20037;-59
2022/01/02 10:34:18;;;;;;;9.20;4.75;;;;;;;11.91;96.67;101061.63;10502029;28;20048;-59
2022/01/02 10:39:20;;;;;;;14.77;4.50;;;;;;;11.92;97.99;101062.47;10500131;28;20059;-60
2022/01/02 10:44:29;;;;;;;9.60;4.40;;;;;;;11.85;98.10;101069.81;10501107;28;20051;-60
2022/01/02 10:49:51;;;;;;;11.10;5.32;;;;;;;11.85;97.50;101052.31;10500891;28;20484;-59
2022/01/02 10:54:54;;;;;;;10.10;4.63;;;;;;;11.81;99.40;101044.72;10500401;28;20036;-60
2022/01/02 11:00:03;;;;;;;13.73;4.82;;;;;;;11.89;99.76;101037.25;10499828;28;20093;-60
2022/01/02 11:05:07;;;;;;;7.22;4.15;;;;;;;12.02;95.67;101042.63;10514080;28;20415;-60
2022/01/02 11:10:11;;;;;;;13.15;4.57;;;;;;;11.90;97.09;101052.88;10543155;28;20056;-59
2022/01/02 11:15:19;;;;;;;11.10;5.20;;;;;;;11.97;97.36;101065.66;10538014;28;20055;-59
2022/01/02 11:20:25;;;;;;;10.88;4.57;;;;;;;11.87;97.18;101060.09;10541893;28;20055;-60
2022/01/02 11:25:37;;;;;;;10.43;5.55;;;;;;;11.98;98.17;101057.69;10543580;28;20052;-60
2022/01/02 11:30:41;;;;;;;12.18;5.07;;;;;;;11.85;97.76;101064.56;10542946;28;20055;-60
2022/01/02 11:35:47;;;;;;;9.30;4.38;;;;;;;11.90;98.68;101057.28;10543046;28;20043;-59
2022/01/02 11:40:56;;;;;;;14.23;4.65;;;;;;;11.87;98.66;101054.84;10543997;28;20135;-60
2022/01/02 11:46:19;;;;;;;7.63;3.92;;;;;;;11.89;97.79;101060.84;10543387;28;20040;-59
2022/01/02 11:51:48;;;;;;;7.65;3.63;;;;;;;11.88;98.86;101074.88;10543264;28;20101;-60
2022/01/02 11:56:50;;;;;;;16.90;4.65;;;;;;;11.95;98.38;101060.50;10542771;28;20121;-60
2022/01/02 12:01:57;;;;;;;9.13;4.20;;;;;;;11.99;97.58;101061.19;10542442;28;20048;-59
2022/01/02 12:07:00;;;;;;;9.88;4.47;;;;;;;12.06;97.42;101055.47;10542231;28;20091;-59
2022/01/02 12:12:05;;;;;;;4.43;3.63;;;;;;;12.20;96.37;101036.25;10542256;28;20052;-60
2022/01/02 12:17:10;;;;;;;11.23;3.60;;;;;;;12.17;97.19;101044.34;10541522;28;20493;-60
2022/01/02 12:22:14;;;;;;;15.85;3.78;;;;;;;12.25;95.40;101043.88;10542241;28;20048;-58
2022/01/02 12:27:17;;;;;;;13.43;4.32;;;;;;;12.20;95.29;101033.63;10540968;28;20044;-59
2022/01/02 12:32:22;;;;;;;6.90;3.58;;;;;;;12.31;94.54;101024.28;10541312;28;20056;-58
2022/01/02 12:37:30;;;;;;;12.68;4.78;;;;;;;12.26;96.26;101033.28;10541351;28;20044;-58
2022/01/02 12:42:32;;;;;;;10.85;3.40;;;;;;;12.23;94.84;101020.34;10540998;28;20048;-59
2022/01/02 12:47:34;;;;;;;7.47;3.45;;;;;;;12.28;95.41;101035.81;10541583;28;20040;-58
2022/01/02 12:52:37;;;;;;;9.75;3.53;;;;;;;12.32;95.89;101025.97;10540508;28;20044;-59
2022/01/02 12:57:39;;;;;;;11.63;4.63;;;;;;;12.25;95.27;101022.88;10540541;28;20488;-59
2022/01/02 13:02:42;;;;;;;6.75;3.20;;;;;;;12.35;94.94;101045.00;10540685;28;20059;-59
2022/01/02 13:07:46;;;;;;;8.80;3.60;;;;;;;12.34;95.19;101034.59;10540206;28;20408;-59
2022/01/02 13:12:48;;;;;;;6.30;3.65;;;;;;;12.42;94.66;101029.72;10540005;28;20048;-59
2022/01/02 13:17:53;;;;;;;9.20;3.30;;;;;;;12.30;95.39;101051.47;10539737;28;20060;-59
2022/01/02 13:22:56;;;;;;;8.27;4.20;;;;;;;12.36;95.76;101037.97;10540462;28;20066;-58
2022/01/02 13:28:12;;;;;;;10.18;3.85;;;;;;;12.42;95.31;101037.59;10516171;28;20573;-59
2022/01/02 13:33:20;;;;;;;18.55;4.25;;;;;;;12.36;95.22;101046.69;10512655;28;20055;-59
2022/01/02 13:38:23;;;;;;;6.18;3.17;;;;;;;12.38;94.88;101044.81;10528912;28;20040;-58
2022/01/02 13:43:31;;;;;;;13.15;3.60;;;;;;;12.41;94.47;101046.41;10516286;28;20059;-59
2022/01/02 13:48:33;;;;;;;10.43;3.13;;;;;;;12.49;95.57;101054.69;10504804;28;20041;-59
2022/01/02 13:53:37;;;;;;;6.43;2.80;;;;;;;12.44;94.96;101072.50;10504367;28;20075;-60
2022/01/02 13:58:41;;;;;;;14.63;3.40;;;;;;;12.25;95.06;101084.13;10511946;28;20036;-59
2022/01/02 14:03:44;;;;;;;14.15;3.10;;;;;;;12.24;94.74;101079.78;10538272;28;20055;-59
2022/01/02 14:08:47;;;;;;;13.25;2.88;;;;;;;12.38;93.91;101080.75;10503080;28;20096;-60
2022/01/02 14:13:51;;;;;;;17.00;3.70;;;;;;;12.24;93.97;101082.41;10502745;28;20051;-59
2022/01/02 14:18:53;;;;;;;8.70;3.17;;;;;;;12.14;94.93;101085.66;10503905;28;20052;-58
2022/01/02 14:23:56;;;;;;;10.02;3.20;;;;;;;12.19;94.01;101081.84;10503192;28;20071;-59
2022/01/02 14:29:00;;;;;;;11.40;3.33;;;;;;;12.07;94.64;101090.44;10503812;28;20056;-58
2022/01/02 14:34:02;;;;;;;12.10;2.65;;;;;;;11.97;97.23;101084.91;10501590;28;20439;-58
2022/01/02 14:39:08;;;;;;;10.48;3.28;;;;;;;11.95;98.31;101084.13;10504280;28;20064;-59
2022/01/02 14:44:12;;;;;;;14.65;2.90;;;;;;;11.85;97.69;101083.81;10504568;28;20048;-58
2022/01/02 14:49:14;;;;;;;14.35;4.68;;;;;;;11.83;98.81;101093.50;10503006;28;20053;-58
2022/01/02 14:54:18;;;;;;;13.55;3.33;;;;;;;11.70;100.00;101082.91;10503389;28;20049;-58
2022/01/02 14:59:20;;;;;;;13.27;3.42;;;;;;;11.56;100.00;101098.56;10503459;28;20048;-58
2022/01/02 15:04:22;;;;;;;15.95;3.90;;;;;;;11.47;100.00;101092.06;10502923;28;20045;-58
2022/01/02 15:09:25;;;;;;;22.92;5.38;;;;;;;11.39;100.00;101096.06;10503454;28;20055;-59
2022/01/02 15:14:27;;;;;;;27.33;5.22;;;;;;;11.55;100.00;101094.28;10502804;28;20049;-58
2022/01/02 15:19:31;;;;;;;15.55;4.43;;;;;;;11.48;100.00;101091.16;10502406;28;20052;-57
2022/01/02 15:24:35;;;;;;;20.17;4.65;;;;;;;11.42;100.00;101081.00;10501688;28;20500;-59
2022/01/02 15:29:38;;;;;;;20.27;4.72;;;;;;;11.37;100.00;101076.97;10500625;28;20424;-57
2022/01/02 15:34:40;;;;;;;23.08;3.90;;;;;;;11.39;100.00;101072.47;10501901;28;20110;-59
2022/01/02 15:39:43;;;;;;;17.52;4.05;;;;;;;11.28;100.00;101087.03;10501698;28;20057;-60
2022/01/02 15:44:45;;;;;;;20.08;4.22;;;;;;;11.32;100.00;101090.31;10501243;28;20066;-58
2022/01/02 15:49:48;;;;;;;18.42;4.13;;;;;;;11.24;100.00;101082.88;10501107;28;20398;-58
2022/01/02 15:54:50;;;;;;;22.35;5.85;;;;;;;11.20;100.00;101081.38;10518462;28;20049;-57
2022/01/02 15:59:53;;;;;;;21.27;5.20;;;;;;;11.03;100.00;101066.56;10500086;28;20068;-59
2022/01/02 16:04:55;;;;;;;21.15;4.28;;;;;;;10.95;100.00;101068.78;10500731;28;20052;-58
2022/01/02 16:09:57;;;;;;;23.17;4.68;;;;;;;10.79;100.00;101076.59;10500773;28;20048;-59
2022/01/02 16:15:01;;;;;;;17.65;5.18;;;;;;;10.91;100.00;101065.47;10515442;28;20044;-59
2022/01/02 16:20:04;;;;;;;23.77;5.03;;;;;;;10.72;100.00;101065.59;10500324;28;20102;-58
2022/01/02 16:25:06;;;;;;;19.45;4.18;;;;;;;10.83;100.00;101064.22;10499831;28;20044;-56
2022/01/02 16:30:09;;;;;;;18.92;4.13;;;;;;;10.53;100.00;101060.50;10499517;28;20053;-59
2022/01/02 16:35:11;;;;;;;20.05;4.35;;;;;;;10.50;100.00;101063.28;10499747;28;20051;-58
2022/01/02 16:40:14;;;;;;;21.23;4.72;;;;;;;10.50;100.00;101054.59;10499140;28;20057;-58
2022/01/02 16:45:16;;;;;;;20.73;4.68;;;;;;;10.62;100.00;101053.09;10498314;28;20044;-57
2022/01/02 16:50:19;;;;;;;26.63;6.45;;;;;;;10.58;100.00;101050.63;10498194;28;20488;-57
2022/01/02 16:55:22;;;;;;;31.80;7.40;;;;;;;10.55;100.00;101040.31;10498524;28;20052;-55
2022/01/02 17:00:25;;;;;;;25.90;9.88;;;;;;;10.53;100.00;101034.34;10499586;28;20063;-58
2022/01/02 17:05:28;;;;;;;24.83;7.93;;;;;;;10.59;100.00;101033.16;10498575;28;20045;-56
2022/01/02 17:10:31;;;;;;;17.65;5.20;;;;;;;10.71;100.00;101031.66;10498565;28;20060;-59
2022/01/02 17:15:34;;;;;;;14.90;3.67;;;;;;;10.87;100.00;101031.66;10492969;28;20411;-57
2022/01/02 17:20:37;;;;;;;9.30;3.67;;;;;;;10.85;100.00;101036.16;10458185;28;20452;-58
2022/01/02 17:25:40;;;;;;;18.77;3.92;;;;;;;10.95;100.00;101026.84;10456718;28;20060;-55
2022/01/02 17:30:42;;;;;;;13.20;3.58;;;;;;;10.96;100.00;101015.44;10456359;28;20047;-55
2022/01/02 17:35:45;;;;;;;11.55;3.58;;;;;;;11.04;100.00;101001.91;10456659;28;20049;-56
2022/01/02 17:40:48;;;;;;;9.20;3.00;;;;;;;11.00;100.00;101000.41;10456235;28;20051;-59
2022/01/02 17:45:51;;;;;;;11.55;2.80;;;;;;;11.21;100.00;100988.69;10456160;28;20067;-57
2022/01/02 17:50:54;;;;;;;9.82;3.00;;;;;;;11.04;100.00;100991.44;10438453;28;20485;-57
2022/01/02 17:55:56;;;;;;;8.88;2.95;;;;;;;11.11;100.00;100985.78;10455771;28;20049;-58
2022/01/02 18:00:58;;;;;;;9.55;2.88;;;;;;;11.27;100.00;100972.63;10456478;28;20390;-58
2022/01/02 18:06:07;;;;;;;4.72;2.58;;;;;;;11.21;99.22;100965.09;10457071;28;20099;-56
2022/01/02 18:11:09;;;;;;;13.02;2.88;;;;;;;11.32;100.00;100956.63;10455962;28;20048;-56
2022/01/02 18:16:12;;;;;;;12.00;3.05;;;;;;;11.14;100.00;100958.53;10455360;28;20493;-54
2022/01/02 18:21:15;;;;;;;10.18;2.45;;;;;;;11.46;99.11;100950.59;10456176;28;20083;-56
2022/01/02 18:26:17;;;;;;;10.23;3.40;;;;;;;11.20;100.00;100966.06;10445502;28;20056;-57
2022/01/02 18:31:22;;;;;;;6.82;2.22;;;;;;;11.04;100.00;100945.09;10463330;28;20045;-58
2022/01/02 18:36:24;;;;;;;8.55;2.33;;;;;;;10.87;100.00;100930.34;10462860;28;20132;-54
2022/01/02 18:41:27;;;;;;;10.52;2.70;;;;;;;10.90;100.00;100930.19;10462563;28;20501;-56
2022/01/02 18:46:29;;;;;;;11.18;2.30;;;;;;;10.66;100.00;100911.47;10464903;28;20052;-58
2022/01/02 18:51:32;;;;;;;10.73;2.58;;;;;;;10.84;100.00;100901.69;10462188;28;20057;-58
2022/01/02 18:56:35;;;;;;;15.88;4.15;;;;;;;11.05;100.00;100893.56;10462682;28;20045;-59
2022/01/02 19:01:38;;;;;;;14.25;4.43;;;;;;;10.70;100.00;100883.31;10461703;28;20049;-58
2022/01/02 19:06:40;;;;;;;9.68;4.05;;;;;;;10.88;100.00;100877.03;10461738;28;20057;-58
2022/01/02 19:11:43;;;;;;;9.10;3.72;;;;;;;10.80;100.00;100865.31;10461345;28;20052;-58
2022/01/02 19:16:45;;;;;;;18.27;4.72;;;;;;;10.52;100.00;100865.13;10482843;28;20055;-58
2022/01/02 19:21:48;;;;;;;14.25;4.72;;;;;;;10.51;100.00;100839.84;10544681;28;20086;-56
2022/01/02 19:26:50;;;;;;;14.75;5.32;;;;;;;10.25;100.00;100829.97;10546888;28;20048;-58
2022/01/02 19:31:56;;;;;;;11.52;4.93;;;;;;;10.48;100.00;100816.47;10544309;28;20055;-59
2022/01/02 19:36:59;;;;;;;13.85;4.68;;;;;;;10.41;100.00;100807.28;10543715;28;20131;-59
2022/01/02 19:42:01;;;;;;;7.03;3.05;;;;;;;10.65;100.00;100802.41;10543457;28;20061;-60
2022/01/02 19:47:03;;;;;;;15.00;4.15;;;;;;;10.42;100.00;100816.81;10542619;28;20056;-55
2022/01/02 19:52:11;;;;;;;12.73;4.05;;;;;;;10.42;100.00;100819.41;10543041;28;20048;-56
2022/01/02 19:57:14;;;;;;;11.05;3.83;;;;;;;10.23;100.00;100812.56;10542742;28;20048;-57
2022/01/02 20:02:16;;;;;;;9.23;2.83;;;;;;;10.27;100.00;100797.56;10542499;28;20047;-57
2022/01/02 20:07:21;;;;;;;4.65;2.47;;;;;;;10.10;100.00;100792.41;10542542;28;20075;-57
2022/01/02 20:12:23;;;;;;;3.20;1.65;;;;;;;10.08;100.00;100779.41;10543414;28;20051;-57
2022/01/02 20:17:26;;;;;;;3.90;1.40;;;;;;;9.95;100.00;100770.56;10541809;28;20399;-59
2022/01/02 20:22:30;;;;;;;3.80;1.75;;;;;;;9.94;100.00;100790.66;10542140;28;20052;-57
2022/01/02 20:27:33;;;;;;;2.55;1.50;;;;;;;9.83;100.00;100799.09;10541603;28;20054;-54
2022/01/02 20:32:39;;;;;;;5.72;2.67;;;;;;;9.92;100.00;100782.03;10541211;28;20499;-58
2022/01/02 20:37:42;;;;;;;6.15;2.80;;;;;;;9.89;100.00;100776.97;10541458;28;20044;-58
2022/01/02 20:42:45;;;;;;;3.80;1.70;;;;;;;9.82;100.00;100801.78;10541258;28;20052;-57
2022/01/02 20:47:47;;;;;;;2.95;1.60;;;;;;;9.82;100.00;100784.31;10540517;28;20047;-57
2022/01/02 20:52:50;;;;;;;4.32;1.95;;;;;;;9.95;100.00;100783.63;10542349;28;20052;-57
2022/01/02 20:57:54;;;;;;;6.15;2.03;;;;;;;9.85;100.00;100778.91;10540574;28;20392;-58
2022/01/02 21:02:56;;;;;;;8.65;2.15;;;;;;;9.95;100.00;100775.78;10522482;28;20056;-59
2022/01/02 21:07:59;;;;;;;6.25;1.85;;;;;;;9.99;100.00;100804.31;10540454;28;20066;-59
2022/01/02 21:13:02;;;;;;;11.40;2.95;;;;;;;9.91;100.00;100790.81;10555583;28;20089;-57
2022/01/02 21:18:04;;;;;;;9.48;2.53;;;;;;;10.00;100.00;100799.91;10540322;28;20052;-57
2022/01/02 21:23:06;;;;;;;10.77;3.55;;;;;;;9.98;100.00;100815.69;10540343;28;20052;-57
2022/01/02 21:28:10;;;;;;;14.23;2.55;;;;;;;10.11;100.00;100815.03;10540598;28;20048;-58
2022/01/02 21:33:13;;;;;;;15.65;3.03;;;;;;;10.02;100.00;100822.47;10555253;28;20515;-58
2022/01/02 21:38:15;;;;;;;7.55;2.28;;;;;;;10.02;100.00;100855.63;10539692;28;20051;-56
2022/01/02 21:43:18;;;;;;;8.82;2.15;;;;;;;9.99;100.00;100842.72;10539644;28;20059;-57
2022/01/02 21:48:20;;;;;;;15.63;2.58;;;;;;;10.01;100.00;100861.78;10539325;28;20050;-58
2022/01/02 21:53:23;;;;;;;10.23;3.33;;;;;;;9.94;100.00;100866.50;10539323;28;20047;-57
2022/01/02 21:58:25;;;;;;;16.30;3.33;;;;;;;9.99;100.00;100876.72;10543861;28;20048;-57
2022/01/02 22:03:28;;;;;;;10.70;2.60;;;;;;;10.03;100.00;100884.28;10547545;28;20071;-57
2022/01/02 22:08:30;;;;;;;15.30;2.83;;;;;;;9.88;100.00;100903.41;10529062;28;20044;-57
2022/01/02 22:13:33;;;;;;;13.40;3.03;;;;;;;9.94;100.00;100913.56;10546984;28;20048;-59
2022/01/02 22:18:35;;;;;;;13.40;1.83;;;;;;;9.90;100.00;100921.66;10552769;28;20059;-57
2022/01/02 22:23:44;;;;;;;14.23;3.08;;;;;;;9.85;100.00;100922.75;10546962;28;20060;-57
2022/01/02 22:28:48;;;;;;;13.57;2.70;;;;;;;9.70;100.00;100961.91;10546356;28;20051;-57
2022/01/02 22:33:52;;;;;;;17.02;3.17;;;;;;;9.79;100.00;100954.44;10545934;28;20404;-58
2022/01/02 22:38:55;;;;;;;18.73;2.92;;;;;;;9.84;100.00;100949.81;10528131;28;20055;-57
2022/01/02 22:43:57;;;;;;;15.95;2.83;;;;;;;9.79;100.00;100964.91;10545910;28;20052;-58
2022/01/02 22:49:08;;;;;;;23.42;4.35;;;;;;;9.79;100.00;100957.06;10545654;28;20054;-57
2022/01/02 22:54:13;;;;;;;24.58;4.05;;;;;;;9.80;100.00;100957.88;10545389;28;20521;-57